sensor_id;sensor_type;location;lat;lon;timestamp;P1;durP1;ratioP1;P2;durP2;ratioP2
45970;SDS011;31681;48.982;8.394;2022-12-29T00:02:14;2.72;;;1.20;;
45970;SDS011;31681;48.982;8.394;2022-12-29T00:04:41;1.45;;;1.10;;
45970;SDS011;31681;48.982;8.394;2022-12-29T00:07:07;5.70;;;1.80;;
45970;SDS011;31681;48.982;8.394;2022-12-29T00:09:33;3.88;;;1.70;;
45970;SDS011;31681;48.982;8.394;2022-12-29T00:11:58;2.60;;;1.20;;
45970;SDS011;31681;48.982;8.394;2022-12-29T00:14:24;1.52;;;0.98;;
45970;SDS011;31681;48.982;8.394;2022-12-29T00:17:08;2.05;;;1.38;;
45970;SDS011;31681;48.982;8.394;2022-12-29T00:19:34;3.83;;;1.08;;
45970;SDS011;31681;48.982;8.394;2022-12-29T00:22:18;2.13;;;1.13;;
45970;SDS011;31681;48.982;8.394;2022-12-29T00:25:03;2.38;;;1.15;;
45970;SDS011;31681;48.982;8.394;2022-12-29T00:27:47;2.05;;;1.35;;
45970;SDS011;31681;48.982;8.394;2022-12-29T00:30:33;1.85;;;1.08;;
45970;SDS011;31681;48.982;8.394;2022-12-29T00:33:19;2.15;;;1.10;;
45970;SDS011;31681;48.982;8.394;2022-12-29T00:38:59;1.95;;;1.00;;
45970;SDS011;31681;48.982;8.394;2022-12-29T00:41:46;2.45;;;1.00;;
45970;SDS011;31681;48.982;8.394;2022-12-29T00:44:31;2.63;;;1.02;;
45970;SDS011;31681;48.982;8.394;2022-12-29T00:46:56;2.05;;;1.00;;
45970;SDS011;31681;48.982;8.394;2022-12-29T00:49:21;1.27;;;1.10;;
45970;SDS011;31681;48.982;8.394;2022-12-29T00:51:57;1.85;;;1.30;;
45970;SDS011;31681;48.982;8.394;2022-12-29T00:54:23;1.70;;;1.05;;
45970;SDS011;31681;48.982;8.394;2022-12-29T00:56:49;3.97;;;1.10;;
45970;SDS011;31681;48.982;8.394;2022-12-29T00:59:16;3.72;;;1.40;;
45970;SDS011;31681;48.982;8.394;2022-12-29T01:01:44;1.42;;;1.20;;
45970;SDS011;31681;48.982;8.394;2022-12-29T01:04:10;1.38;;;1.02;;
45970;SDS011;31681;48.982;8.394;2022-12-29T01:06:37;1.88;;;1.20;;
45970;SDS011;31681;48.982;8.394;2022-12-29T01:09:04;1.95;;;1.10;;
45970;SDS011;31681;48.982;8.394;2022-12-29T01:11:51;2.80;;;1.10;;
45970;SDS011;31681;48.982;8.394;2022-12-29T01:14:16;2.15;;;1.40;;
45970;SDS011;31681;48.982;8.394;2022-12-29T01:16:43;2.17;;;1.17;;
45970;SDS011;31681;48.982;8.394;2022-12-29T01:19:09;2.92;;;1.30;;
45970;SDS011;31681;48.982;8.394;2022-12-29T01:21:34;2.10;;;1.10;;
45970;SDS011;31681;48.982;8.394;2022-12-29T01:24:00;2.45;;;1.20;;
45970;SDS011;31681;48.982;8.394;2022-12-29T01:26:25;1.23;;;1.05;;
45970;SDS011;31681;48.982;8.394;2022-12-29T01:28:50;4.00;;;1.20;;
45970;SDS011;31681;48.982;8.394;2022-12-29T01:31:16;3.88;;;1.20;;
45970;SDS011;31681;48.982;8.394;2022-12-29T01:33:42;2.35;;;1.25;;
45970;SDS011;31681;48.982;8.394;2022-12-29T01:36:09;1.63;;;1.15;;
45970;SDS011;31681;48.982;8.394;2022-12-29T01:38:36;1.70;;;0.93;;
45970;SDS011;31681;48.982;8.394;2022-12-29T01:41:03;2.05;;;1.15;;
45970;SDS011;31681;48.982;8.394;2022-12-29T01:46:13;1.85;;;1.20;;
45970;SDS011;31681;48.982;8.394;2022-12-29T01:48:46;1.90;;;1.27;;
45970;SDS011;31681;48.982;8.394;2022-12-29T01:51:13;1.73;;;1.20;;
45970;SDS011;31681;48.982;8.394;2022-12-29T01:53:40;2.90;;;1.20;;
45970;SDS011;31681;48.982;8.394;2022-12-29T01:56:07;1.45;;;1.00;;
45970;SDS011;31681;48.982;8.394;2022-12-29T01:58:37;2.50;;;1.13;;
45970;SDS011;31681;48.982;8.394;2022-12-29T02:01:06;1.58;;;1.30;;
45970;SDS011;31681;48.982;8.394;2022-12-29T02:03:34;2.60;;;1.42;;
45970;SDS011;31681;48.982;8.394;2022-12-29T02:06:22;3.55;;;1.25;;
45970;SDS011;31681;48.982;8.394;2022-12-29T02:08:49;1.13;;;1.02;;
45970;SDS011;31681;48.982;8.394;2022-12-29T02:11:17;2.30;;;1.05;;
45970;SDS011;31681;48.982;8.394;2022-12-29T02:13:43;2.15;;;1.20;;
45970;SDS011;31681;48.982;8.394;2022-12-29T02:38:38;2.25;;;1.10;;
45970;SDS011;31681;48.982;8.394;2022-12-29T02:43:49;2.95;;;1.40;;
45970;SDS011;31681;48.982;8.394;2022-12-29T02:46:34;1.05;;;0.95;;
45970;SDS011;31681;48.982;8.394;2022-12-29T02:49:06;1.63;;;1.15;;
45970;SDS011;31681;48.982;8.394;2022-12-29T02:51:43;0.90;;;0.80;;
45970;SDS011;31681;48.982;8.394;2022-12-29T02:54:16;2.85;;;1.15;;
45970;SDS011;31681;48.982;8.394;2022-12-29T02:57:05;1.55;;;1.02;;
45970;SDS011;31681;48.982;8.394;2022-12-29T02:59:35;1.33;;;1.00;;
45970;SDS011;31681;48.982;8.394;2022-12-29T03:02:06;1.73;;;1.10;;
45970;SDS011;31681;48.982;8.394;2022-12-29T03:10:24;1.88;;;0.93;;
45970;SDS011;31681;48.982;8.394;2022-12-29T03:15:44;2.83;;;1.15;;
45970;SDS011;31681;48.982;8.394;2022-12-29T03:18:27;2.95;;;1.30;;
45970;SDS011;31681;48.982;8.394;2022-12-29T03:24:18;2.90;;;1.10;;
45970;SDS011;31681;48.982;8.394;2022-12-29T03:26:47;2.17;;;1.33;;
45970;SDS011;31681;48.982;8.394;2022-12-29T03:29:15;2.00;;;1.00;;
45970;SDS011;31681;48.982;8.394;2022-12-29T03:31:44;1.40;;;1.00;;
45970;SDS011;31681;48.982;8.394;2022-12-29T03:34:10;2.38;;;1.00;;
45970;SDS011;31681;48.982;8.394;2022-12-29T03:36:42;1.10;;;0.90;;
45970;SDS011;31681;48.982;8.394;2022-12-29T03:39:13;2.10;;;1.13;;
45970;SDS011;31681;48.982;8.394;2022-12-29T03:41:40;3.65;;;1.10;;
45970;SDS011;31681;48.982;8.394;2022-12-29T03:44:07;0.90;;;0.82;;
45970;SDS011;31681;48.982;8.394;2022-12-29T03:46:33;1.00;;;0.90;;
45970;SDS011;31681;48.982;8.394;2022-12-29T03:48:59;1.27;;;1.00;;
45970;SDS011;31681;48.982;8.394;2022-12-29T03:51:25;2.47;;;1.25;;
45970;SDS011;31681;48.982;8.394;2022-12-29T03:53:51;2.55;;;1.42;;
45970;SDS011;31681;48.982;8.394;2022-12-29T03:56:16;1.70;;;1.10;;
45970;SDS011;31681;48.982;8.394;2022-12-29T03:58:42;2.05;;;1.00;;
45970;SDS011;31681;48.982;8.394;2022-12-29T04:01:10;1.10;;;1.00;;
45970;SDS011;31681;48.982;8.394;2022-12-29T04:03:37;1.77;;;1.20;;
45970;SDS011;31681;48.982;8.394;2022-12-29T04:06:03;1.80;;;1.08;;
45970;SDS011;31681;48.982;8.394;2022-12-29T04:08:37;1.40;;;1.02;;
45970;SDS011;31681;48.982;8.394;2022-12-29T04:11:02;3.00;;;1.67;;
45970;SDS011;31681;48.982;8.394;2022-12-29T04:13:28;2.30;;;1.00;;
45970;SDS011;31681;48.982;8.394;2022-12-29T04:15:54;1.35;;;1.23;;
45970;SDS011;31681;48.982;8.394;2022-12-29T04:18:19;1.23;;;1.02;;
45970;SDS011;31681;48.982;8.394;2022-12-29T04:20:45;3.50;;;1.15;;
45970;SDS011;31681;48.982;8.394;2022-12-29T04:23:27;3.00;;;1.10;;
45970;SDS011;31681;48.982;8.394;2022-12-29T04:25:53;2.05;;;1.45;;
45970;SDS011;31681;48.982;8.394;2022-12-29T04:28:19;1.10;;;0.93;;
45970;SDS011;31681;48.982;8.394;2022-12-29T04:30:44;1.77;;;1.17;;
45970;SDS011;31681;48.982;8.394;2022-12-29T04:33:20;2.03;;;1.15;;
45970;SDS011;31681;48.982;8.394;2022-12-29T04:35:47;1.88;;;1.10;;
45970;SDS011;31681;48.982;8.394;2022-12-29T04:38:13;1.65;;;1.30;;
45970;SDS011;31681;48.982;8.394;2022-12-29T04:40:39;1.52;;;1.10;;
45970;SDS011;31681;48.982;8.394;2022-12-29T04:43:06;3.25;;;1.45;;
45970;SDS011;31681;48.982;8.394;2022-12-29T04:45:38;3.80;;;1.27;;
45970;SDS011;31681;48.982;8.394;2022-12-29T04:48:17;3.83;;;1.40;;
45970;SDS011;31681;48.982;8.394;2022-12-29T04:50:56;2.10;;;1.10;;
45970;SDS011;31681;48.982;8.394;2022-12-29T04:53:24;1.73;;;1.20;;
45970;SDS011;31681;48.982;8.394;2022-12-29T04:55:52;4.03;;;1.08;;
45970;SDS011;31681;48.982;8.394;2022-12-29T04:58:18;2.60;;;1.55;;
45970;SDS011;31681;48.982;8.394;2022-12-29T05:00:45;3.58;;;1.05;;
45970;SDS011;31681;48.982;8.394;2022-12-29T05:03:11;2.00;;;1.38;;
45970;SDS011;31681;48.982;8.394;2022-12-29T05:05:39;4.05;;;1.30;;
45970;SDS011;31681;48.982;8.394;2022-12-29T05:08:04;2.17;;;1.27;;
45970;SDS011;31681;48.982;8.394;2022-12-29T05:10:30;4.63;;;1.33;;
45970;SDS011;31681;48.982;8.394;2022-12-29T05:12:59;2.35;;;1.52;;
45970;SDS011;31681;48.982;8.394;2022-12-29T05:15:25;2.22;;;1.20;;
45970;SDS011;31681;48.982;8.394;2022-12-29T05:17:50;2.28;;;1.30;;
45970;SDS011;31681;48.982;8.394;2022-12-29T05:20:16;1.20;;;1.10;;
45970;SDS011;31681;48.982;8.394;2022-12-29T05:22:42;3.38;;;1.50;;
45970;SDS011;31681;48.982;8.394;2022-12-29T05:25:08;4.43;;;1.40;;
45970;SDS011;31681;48.982;8.394;2022-12-29T05:27:45;1.35;;;1.25;;
45970;SDS011;31681;48.982;8.394;2022-12-29T05:30:22;2.83;;;1.52;;
45970;SDS011;31681;48.982;8.394;2022-12-29T05:32:48;1.50;;;1.27;;
45970;SDS011;31681;48.982;8.394;2022-12-29T05:35:13;2.63;;;0.98;;
45970;SDS011;31681;48.982;8.394;2022-12-29T05:37:39;2.45;;;1.23;;
45970;SDS011;31681;48.982;8.394;2022-12-29T05:40:05;2.15;;;1.40;;
45970;SDS011;31681;48.982;8.394;2022-12-29T05:42:31;2.55;;;1.48;;
45970;SDS011;31681;48.982;8.394;2022-12-29T05:45:31;3.10;;;1.60;;
45970;SDS011;31681;48.982;8.394;2022-12-29T05:48:26;1.83;;;1.40;;
45970;SDS011;31681;48.982;8.394;2022-12-29T05:51:12;1.77;;;1.25;;
45970;SDS011;31681;48.982;8.394;2022-12-29T05:53:49;3.33;;;1.40;;
45970;SDS011;31681;48.982;8.394;2022-12-29T05:56:15;4.30;;;1.30;;
45970;SDS011;31681;48.982;8.394;2022-12-29T05:58:41;3.17;;;1.20;;
45970;SDS011;31681;48.982;8.394;2022-12-29T06:01:06;2.15;;;1.27;;
45970;SDS011;31681;48.982;8.394;2022-12-29T06:03:32;2.53;;;1.50;;
45970;SDS011;31681;48.982;8.394;2022-12-29T06:05:57;3.38;;;1.80;;
45970;SDS011;31681;48.982;8.394;2022-12-29T06:08:24;2.70;;;1.60;;
45970;SDS011;31681;48.982;8.394;2022-12-29T06:10:50;3.35;;;1.60;;
45970;SDS011;31681;48.982;8.394;2022-12-29T06:13:15;3.40;;;1.20;;
45970;SDS011;31681;48.982;8.394;2022-12-29T06:15:43;2.58;;;1.60;;
45970;SDS011;31681;48.982;8.394;2022-12-29T06:18:09;3.15;;;1.25;;
45970;SDS011;31681;48.982;8.394;2022-12-29T06:20:34;2.80;;;1.60;;
45970;SDS011;31681;48.982;8.394;2022-12-29T06:23:03;2.38;;;1.50;;
45970;SDS011;31681;48.982;8.394;2022-12-29T06:25:29;3.25;;;1.73;;
45970;SDS011;31681;48.982;8.394;2022-12-29T06:27:57;3.67;;;1.40;;
45970;SDS011;31681;48.982;8.394;2022-12-29T06:30:23;3.80;;;1.50;;
45970;SDS011;31681;48.982;8.394;2022-12-29T06:32:49;2.97;;;1.35;;
45970;SDS011;31681;48.982;8.394;2022-12-29T06:35:17;2.88;;;1.40;;
45970;SDS011;31681;48.982;8.394;2022-12-29T06:37:45;2.88;;;1.67;;
45970;SDS011;31681;48.982;8.394;2022-12-29T06:40:11;2.58;;;1.30;;
45970;SDS011;31681;48.982;8.394;2022-12-29T06:42:57;2.30;;;1.50;;
45970;SDS011;31681;48.982;8.394;2022-12-29T06:45:37;2.17;;;1.30;;
45970;SDS011;31681;48.982;8.394;2022-12-29T06:48:03;3.67;;;1.30;;
45970;SDS011;31681;48.982;8.394;2022-12-29T06:50:29;2.33;;;1.70;;
45970;SDS011;31681;48.982;8.394;2022-12-29T06:52:54;2.70;;;1.30;;
45970;SDS011;31681;48.982;8.394;2022-12-29T06:55:19;2.03;;;1.30;;
45970;SDS011;31681;48.982;8.394;2022-12-29T06:57:46;2.17;;;1.33;;
45970;SDS011;31681;48.982;8.394;2022-12-29T07:00:11;2.25;;;1.55;;
45970;SDS011;31681;48.982;8.394;2022-12-29T07:02:37;1.95;;;1.20;;
45970;SDS011;31681;48.982;8.394;2022-12-29T07:05:03;2.22;;;1.48;;
45970;SDS011;31681;48.982;8.394;2022-12-29T07:07:28;2.38;;;1.42;;
45970;SDS011;31681;48.982;8.394;2022-12-29T07:09:53;1.65;;;1.10;;
45970;SDS011;31681;48.982;8.394;2022-12-29T07:12:19;3.33;;;1.58;;
45970;SDS011;31681;48.982;8.394;2022-12-29T07:14:44;1.90;;;1.60;;
45970;SDS011;31681;48.982;8.394;2022-12-29T07:17:09;2.70;;;1.40;;
45970;SDS011;31681;48.982;8.394;2022-12-29T07:19:35;2.47;;;1.60;;
45970;SDS011;31681;48.982;8.394;2022-12-29T07:22:00;5.20;;;1.50;;
45970;SDS011;31681;48.982;8.394;2022-12-29T07:24:26;3.28;;;1.38;;
45970;SDS011;31681;48.982;8.394;2022-12-29T07:26:52;2.97;;;1.67;;
45970;SDS011;31681;48.982;8.394;2022-12-29T07:29:17;4.97;;;1.45;;
45970;SDS011;31681;48.982;8.394;2022-12-29T07:31:43;3.22;;;1.60;;
45970;SDS011;31681;48.982;8.394;2022-12-29T07:34:09;1.75;;;1.30;;
45970;SDS011;31681;48.982;8.394;2022-12-29T07:36:34;2.95;;;1.60;;
45970;SDS011;31681;48.982;8.394;2022-12-29T07:39:00;2.42;;;1.52;;
45970;SDS011;31681;48.982;8.394;2022-12-29T07:41:26;5.40;;;1.38;;
45970;SDS011;31681;48.982;8.394;2022-12-29T07:43:51;2.35;;;1.40;;
45970;SDS011;31681;48.982;8.394;2022-12-29T07:46:32;1.25;;;1.15;;
45970;SDS011;31681;48.982;8.394;2022-12-29T07:48:57;1.70;;;1.40;;
45970;SDS011;31681;48.982;8.394;2022-12-29T07:51:22;2.50;;;1.63;;
45970;SDS011;31681;48.982;8.394;2022-12-29T07:53:48;2.70;;;1.30;;
45970;SDS011;31681;48.982;8.394;2022-12-29T07:56:13;3.00;;;1.63;;
45970;SDS011;31681;48.982;8.394;2022-12-29T07:58:38;1.80;;;1.20;;
45970;SDS011;31681;48.982;8.394;2022-12-29T08:01:04;3.63;;;1.70;;
45970;SDS011;31681;48.982;8.394;2022-12-29T08:03:30;4.05;;;1.33;;
45970;SDS011;31681;48.982;8.394;2022-12-29T08:05:56;1.75;;;1.50;;
45970;SDS011;31681;48.982;8.394;2022-12-29T08:08:21;1.75;;;1.58;;
45970;SDS011;31681;48.982;8.394;2022-12-29T08:10:47;1.90;;;1.45;;
45970;SDS011;31681;48.982;8.394;2022-12-29T08:13:12;2.72;;;1.48;;
45970;SDS011;31681;48.982;8.394;2022-12-29T08:15:38;4.70;;;1.40;;
45970;SDS011;31681;48.982;8.394;2022-12-29T08:18:03;1.90;;;1.50;;
45970;SDS011;31681;48.982;8.394;2022-12-29T08:20:29;1.33;;;1.23;;
45970;SDS011;31681;48.982;8.394;2022-12-29T08:22:54;2.92;;;1.30;;
45970;SDS011;31681;48.982;8.394;2022-12-29T08:25:20;1.88;;;1.20;;
45970;SDS011;31681;48.982;8.394;2022-12-29T08:27:45;3.17;;;1.23;;
45970;SDS011;31681;48.982;8.394;2022-12-29T08:30:11;3.10;;;1.40;;
45970;SDS011;31681;48.982;8.394;2022-12-29T08:32:37;2.20;;;1.48;;
45970;SDS011;31681;48.982;8.394;2022-12-29T08:35:02;3.50;;;1.45;;
45970;SDS011;31681;48.982;8.394;2022-12-29T08:37:27;3.08;;;1.40;;
45970;SDS011;31681;48.982;8.394;2022-12-29T08:39:53;2.15;;;1.35;;
45970;SDS011;31681;48.982;8.394;2022-12-29T08:42:18;1.95;;;1.33;;
45970;SDS011;31681;48.982;8.394;2022-12-29T08:44:44;2.08;;;1.40;;
45970;SDS011;31681;48.982;8.394;2022-12-29T08:47:09;2.72;;;1.60;;
45970;SDS011;31681;48.982;8.394;2022-12-29T08:49:36;4.07;;;1.50;;
45970;SDS011;31681;48.982;8.394;2022-12-29T08:52:01;6.65;;;1.23;;
45970;SDS011;31681;48.982;8.394;2022-12-29T08:54:27;8.45;;;1.88;;
45970;SDS011;31681;48.982;8.394;2022-12-29T08:56:53;1.95;;;1.33;;
45970;SDS011;31681;48.982;8.394;2022-12-29T08:59:21;3.53;;;1.42;;
45970;SDS011;31681;48.982;8.394;2022-12-29T09:01:47;1.45;;;1.30;;
45970;SDS011;31681;48.982;8.394;2022-12-29T09:04:12;2.28;;;1.73;;
45970;SDS011;31681;48.982;8.394;2022-12-29T09:06:37;3.20;;;1.50;;
45970;SDS011;31681;48.982;8.394;2022-12-29T09:09:03;3.85;;;1.30;;
45970;SDS011;31681;48.982;8.394;2022-12-29T09:11:28;3.95;;;1.55;;
45970;SDS011;31681;48.982;8.394;2022-12-29T09:13:54;5.45;;;1.20;;
45970;SDS011;31681;48.982;8.394;2022-12-29T09:16:20;4.05;;;1.98;;
45970;SDS011;31681;48.982;8.394;2022-12-29T09:18:47;1.83;;;1.25;;
45970;SDS011;31681;48.982;8.394;2022-12-29T09:21:12;6.40;;;1.58;;
45970;SDS011;31681;48.982;8.394;2022-12-29T09:23:38;2.22;;;1.40;;
45970;SDS011;31681;48.982;8.394;2022-12-29T09:26:04;2.13;;;1.30;;
45970;SDS011;31681;48.982;8.394;2022-12-29T09:28:30;2.88;;;1.33;;
45970;SDS011;31681;48.982;8.394;2022-12-29T09:30:56;1.95;;;1.60;;
45970;SDS011;31681;48.982;8.394;2022-12-29T09:33:22;2.72;;;1.20;;
45970;SDS011;31681;48.982;8.394;2022-12-29T09:35:52;1.92;;;1.17;;
45970;SDS011;31681;48.982;8.394;2022-12-29T09:38:19;3.08;;;1.45;;
45970;SDS011;31681;48.982;8.394;2022-12-29T09:40:45;2.53;;;1.15;;
45970;SDS011;31681;48.982;8.394;2022-12-29T09:48:44;1.70;;;1.42;;
45970;SDS011;31681;48.982;8.394;2022-12-29T09:51:14;3.25;;;1.50;;
45970;SDS011;31681;48.982;8.394;2022-12-29T09:54:04;3.50;;;1.23;;
45970;SDS011;31681;48.982;8.394;2022-12-29T09:56:48;2.75;;;1.55;;
45970;SDS011;31681;48.982;8.394;2022-12-29T09:59:15;2.88;;;1.30;;
45970;SDS011;31681;48.982;8.394;2022-12-29T10:01:53;1.92;;;1.30;;
45970;SDS011;31681;48.982;8.394;2022-12-29T10:04:41;1.17;;;0.93;;
45970;SDS011;31681;48.982;8.394;2022-12-29T10:07:17;1.60;;;1.30;;
45970;SDS011;31681;48.982;8.394;2022-12-29T10:10:00;1.40;;;1.30;;
45970;SDS011;31681;48.982;8.394;2022-12-29T10:18:25;2.45;;;1.67;;
45970;SDS011;31681;48.982;8.394;2022-12-29T10:21:05;5.05;;;2.83;;
45970;SDS011;31681;48.982;8.394;2022-12-29T10:23:45;2.85;;;1.27;;
45970;SDS011;31681;48.982;8.394;2022-12-29T10:26:19;4.70;;;1.63;;
45970;SDS011;31681;48.982;8.394;2022-12-29T10:28:49;3.20;;;1.55;;
45970;SDS011;31681;48.982;8.394;2022-12-29T10:31:58;3.92;;;1.30;;
45970;SDS011;31681;48.982;8.394;2022-12-29T10:34:26;2.03;;;1.45;;
45970;SDS011;31681;48.982;8.394;2022-12-29T10:37:00;1.55;;;1.23;;
45970;SDS011;31681;48.982;8.394;2022-12-29T10:39:33;2.65;;;1.30;;
45970;SDS011;31681;48.982;8.394;2022-12-29T10:42:11;1.40;;;1.30;;
45970;SDS011;31681;48.982;8.394;2022-12-29T10:44:43;1.35;;;0.90;;
45970;SDS011;31681;48.982;8.394;2022-12-29T10:47:11;2.58;;;1.40;;
45970;SDS011;31681;48.982;8.394;2022-12-29T10:49:41;1.45;;;1.13;;
45970;SDS011;31681;48.982;8.394;2022-12-29T10:52:11;1.67;;;1.15;;
45970;SDS011;31681;48.982;8.394;2022-12-29T10:54:41;3.25;;;1.50;;
45970;SDS011;31681;48.982;8.394;2022-12-29T10:57:26;3.30;;;1.48;;
45970;SDS011;31681;48.982;8.394;2022-12-29T10:59:57;2.78;;;1.42;;
45970;SDS011;31681;48.982;8.394;2022-12-29T11:02:34;1.45;;;1.20;;
45970;SDS011;31681;48.982;8.394;2022-12-29T11:08:04;2.25;;;1.15;;
45970;SDS011;31681;48.982;8.394;2022-12-29T11:10:39;2.38;;;1.50;;
45970;SDS011;31681;48.982;8.394;2022-12-29T11:13:16;3.00;;;1.35;;
45970;SDS011;31681;48.982;8.394;2022-12-29T11:15:44;1.35;;;1.10;;
45970;SDS011;31681;48.982;8.394;2022-12-29T11:18:18;2.40;;;1.30;;
45970;SDS011;31681;48.982;8.394;2022-12-29T11:20:59;1.70;;;1.42;;
45970;SDS011;31681;48.982;8.394;2022-12-29T11:23:34;3.38;;;1.48;;
45970;SDS011;31681;48.982;8.394;2022-12-29T11:28:44;1.95;;;1.25;;
45970;SDS011;31681;48.982;8.394;2022-12-29T11:31:15;1.88;;;1.20;;
45970;SDS011;31681;48.982;8.394;2022-12-29T11:33:42;2.05;;;1.42;;
45970;SDS011;31681;48.982;8.394;2022-12-29T11:36:10;4.97;;;1.95;;
45970;SDS011;31681;48.982;8.394;2022-12-29T11:38:39;4.30;;;1.30;;
45970;SDS011;31681;48.982;8.394;2022-12-29T11:41:06;2.28;;;1.38;;
45970;SDS011;31681;48.982;8.394;2022-12-29T11:43:38;1.20;;;1.10;;
45970;SDS011;31681;48.982;8.394;2022-12-29T11:46:07;2.85;;;1.13;;
45970;SDS011;31681;48.982;8.394;2022-12-29T11:48:43;10.93;;;1.75;;
45970;SDS011;31681;48.982;8.394;2022-12-29T11:51:10;2.35;;;1.40;;
45970;SDS011;31681;48.982;8.394;2022-12-29T11:53:38;3.97;;;1.15;;
45970;SDS011;31681;48.982;8.394;2022-12-29T11:56:13;3.35;;;1.30;;
45970;SDS011;31681;48.982;8.394;2022-12-29T11:58:41;1.33;;;1.10;;
45970;SDS011;31681;48.982;8.394;2022-12-29T12:01:09;2.90;;;1.35;;
45970;SDS011;31681;48.982;8.394;2022-12-29T12:03:52;1.75;;;0.80;;
45970;SDS011;31681;48.982;8.394;2022-12-29T12:06:26;1.17;;;0.70;;
45970;SDS011;31681;48.982;8.394;2022-12-29T12:08:55;1.95;;;0.88;;
45970;SDS011;31681;48.982;8.394;2022-12-29T12:11:33;1.20;;;0.85;;
45970;SDS011;31681;48.982;8.394;2022-12-29T12:14:11;2.30;;;0.70;;
45970;SDS011;31681;48.982;8.394;2022-12-29T12:17:29;3.35;;;0.93;;
45970;SDS011;31681;48.982;8.394;2022-12-29T12:25:37;1.10;;;0.90;;
45970;SDS011;31681;48.982;8.394;2022-12-29T12:30:45;1.90;;;0.80;;
45970;SDS011;31681;48.982;8.394;2022-12-29T12:39:02;2.92;;;1.13;;
45970;SDS011;31681;48.982;8.394;2022-12-29T12:58:04;1.55;;;0.90;;
45970;SDS011;31681;48.982;8.394;2022-12-29T13:00:46;1.15;;;0.90;;
45970;SDS011;31681;48.982;8.394;2022-12-29T13:03:35;1.98;;;1.02;;
45970;SDS011;31681;48.982;8.394;2022-12-29T13:06:16;1.10;;;1.00;;
45970;SDS011;31681;48.982;8.394;2022-12-29T13:14:08;2.60;;;1.00;;
45970;SDS011;31681;48.982;8.394;2022-12-29T13:19:48;3.38;;;1.23;;
45970;SDS011;31681;48.982;8.394;2022-12-29T13:22:18;3.42;;;1.10;;
45970;SDS011;31681;48.982;8.394;2022-12-29T13:30:40;1.63;;;1.15;;
45970;SDS011;31681;48.982;8.394;2022-12-29T13:33:28;2.05;;;1.10;;
45970;SDS011;31681;48.982;8.394;2022-12-29T13:36:06;1.15;;;0.88;;
45970;SDS011;31681;48.982;8.394;2022-12-29T13:38:39;1.35;;;0.70;;
45970;SDS011;31681;48.982;8.394;2022-12-29T13:41:09;2.85;;;0.85;;
45970;SDS011;31681;48.982;8.394;2022-12-29T13:43:39;0.90;;;0.77;;
45970;SDS011;31681;48.982;8.394;2022-12-29T13:49:21;0.57;;;0.52;;
45970;SDS011;31681;48.982;8.394;2022-12-29T13:51:56;1.48;;;0.73;;
45970;SDS011;31681;48.982;8.394;2022-12-29T13:54:26;1.13;;;0.70;;
45970;SDS011;31681;48.982;8.394;2022-12-29T13:57:38;1.83;;;0.70;;
45970;SDS011;31681;48.982;8.394;2022-12-29T14:00:18;0.52;;;0.47;;
45970;SDS011;31681;48.982;8.394;2022-12-29T14:07:45;1.80;;;0.60;;
45970;SDS011;31681;48.982;8.394;2022-12-29T14:15:39;1.33;;;0.70;;
45970;SDS011;31681;48.982;8.394;2022-12-29T14:18:13;1.90;;;0.75;;
45970;SDS011;31681;48.982;8.394;2022-12-29T14:20:49;2.33;;;0.90;;
45970;SDS011;31681;48.982;8.394;2022-12-29T14:23:39;1.10;;;1.00;;
45970;SDS011;31681;48.982;8.394;2022-12-29T14:28:31;1.35;;;1.02;;
45970;SDS011;31681;48.982;8.394;2022-12-29T14:30:57;0.82;;;0.80;;
45970;SDS011;31681;48.982;8.394;2022-12-29T14:33:25;0.82;;;0.50;;
45970;SDS011;31681;48.982;8.394;2022-12-29T14:35:53;1.15;;;0.70;;
45970;SDS011;31681;48.982;8.394;2022-12-29T14:38:23;1.38;;;0.50;;
45970;SDS011;31681;48.982;8.394;2022-12-29T14:40:50;0.82;;;0.40;;
45970;SDS011;31681;48.982;8.394;2022-12-29T14:43:18;3.30;;;0.57;;
45970;SDS011;31681;48.982;8.394;2022-12-29T14:45:51;2.63;;;0.60;;
45970;SDS011;31681;48.982;8.394;2022-12-29T14:51:29;2.75;;;0.85;;
45970;SDS011;31681;48.982;8.394;2022-12-29T14:53:57;1.45;;;0.82;;
45970;SDS011;31681;48.982;8.394;2022-12-29T14:56:24;2.83;;;0.77;;
45970;SDS011;31681;48.982;8.394;2022-12-29T14:58:54;2.10;;;0.55;;
45970;SDS011;31681;48.982;8.394;2022-12-29T15:01:45;3.80;;;0.90;;
45970;SDS011;31681;48.982;8.394;2022-12-29T15:04:18;2.17;;;0.70;;
45970;SDS011;31681;48.982;8.394;2022-12-29T15:06:47;0.75;;;0.70;;
45970;SDS011;31681;48.982;8.394;2022-12-29T15:12:20;0.90;;;0.60;;
45970;SDS011;31681;48.982;8.394;2022-12-29T15:15:00;0.85;;;0.57;;
45970;SDS011;31681;48.982;8.394;2022-12-29T15:17:31;2.03;;;0.60;;
45970;SDS011;31681;48.982;8.394;2022-12-29T15:19:59;0.73;;;0.57;;
45970;SDS011;31681;48.982;8.394;2022-12-29T15:22:26;0.82;;;0.60;;
45970;SDS011;31681;48.982;8.394;2022-12-29T15:24:53;1.27;;;0.70;;
45970;SDS011;31681;48.982;8.394;2022-12-29T15:27:23;2.45;;;0.93;;
45970;SDS011;31681;48.982;8.394;2022-12-29T15:29:58;1.38;;;0.60;;
45970;SDS011;31681;48.982;8.394;2022-12-29T15:32:27;1.00;;;0.73;;
45970;SDS011;31681;48.982;8.394;2022-12-29T15:34:56;1.83;;;0.60;;
45970;SDS011;31681;48.982;8.394;2022-12-29T15:37:27;0.75;;;0.60;;
45970;SDS011;31681;48.982;8.394;2022-12-29T15:39:57;4.20;;;1.02;;
45970;SDS011;31681;48.982;8.394;2022-12-29T15:42:35;1.42;;;1.02;;
45970;SDS011;31681;48.982;8.394;2022-12-29T15:45:13;1.63;;;1.30;;
45970;SDS011;31681;48.982;8.394;2022-12-29T15:47:39;1.67;;;1.30;;
45970;SDS011;31681;48.982;8.394;2022-12-29T15:50:15;1.73;;;1.17;;
45970;SDS011;31681;48.982;8.394;2022-12-29T15:55:40;1.13;;;0.90;;
45970;SDS011;31681;48.982;8.394;2022-12-29T15:58:18;2.00;;;0.93;;
45970;SDS011;31681;48.982;8.394;2022-12-29T16:00:50;1.60;;;0.80;;
45970;SDS011;31681;48.982;8.394;2022-12-29T16:03:26;1.30;;;0.93;;
45970;SDS011;31681;48.982;8.394;2022-12-29T16:06:09;0.95;;;0.82;;
45970;SDS011;31681;48.982;8.394;2022-12-29T16:08:55;1.00;;;0.90;;
45970;SDS011;31681;48.982;8.394;2022-12-29T16:11:22;1.20;;;0.82;;
45970;SDS011;31681;48.982;8.394;2022-12-29T16:13:52;1.58;;;1.10;;
45970;SDS011;31681;48.982;8.394;2022-12-29T16:16:20;2.10;;;1.20;;
45970;SDS011;31681;48.982;8.394;2022-12-29T16:18:50;3.35;;;1.02;;
45970;SDS011;31681;48.982;8.394;2022-12-29T16:21:25;1.05;;;0.95;;
45970;SDS011;31681;48.982;8.394;2022-12-29T16:23:54;1.38;;;0.95;;
45970;SDS011;31681;48.982;8.394;2022-12-29T16:26:23;2.25;;;1.00;;
45970;SDS011;31681;48.982;8.394;2022-12-29T16:29:01;1.80;;;1.15;;
45970;SDS011;31681;48.982;8.394;2022-12-29T16:31:36;2.30;;;0.90;;
45970;SDS011;31681;48.982;8.394;2022-12-29T16:34:19;1.83;;;1.02;;
45970;SDS011;31681;48.982;8.394;2022-12-29T16:37:32;1.13;;;1.02;;
45970;SDS011;31681;48.982;8.394;2022-12-29T16:40:18;3.05;;;1.25;;
45970;SDS011;31681;48.982;8.394;2022-12-29T16:42:56;1.05;;;0.80;;
45970;SDS011;31681;48.982;8.394;2022-12-29T16:48:17;1.23;;;1.10;;
45970;SDS011;31681;48.982;8.394;2022-12-29T16:50:45;1.02;;;0.80;;
45970;SDS011;31681;48.982;8.394;2022-12-29T16:53:21;2.92;;;1.10;;
45970;SDS011;31681;48.982;8.394;2022-12-29T16:55:51;3.85;;;1.08;;
45970;SDS011;31681;48.982;8.394;2022-12-29T16:58:22;2.60;;;1.35;;
45970;SDS011;31681;48.982;8.394;2022-12-29T17:00:53;3.50;;;1.13;;
45970;SDS011;31681;48.982;8.394;2022-12-29T17:03:20;5.60;;;1.10;;
45970;SDS011;31681;48.982;8.394;2022-12-29T17:05:46;1.42;;;1.10;;
45970;SDS011;31681;48.982;8.394;2022-12-29T17:08:16;4.22;;;1.10;;
45970;SDS011;31681;48.982;8.394;2022-12-29T17:10:51;2.45;;;1.08;;
45970;SDS011;31681;48.982;8.394;2022-12-29T17:13:38;1.42;;;1.20;;
45970;SDS011;31681;48.982;8.394;2022-12-29T17:16:04;1.95;;;1.02;;
45970;SDS011;31681;48.982;8.394;2022-12-29T17:18:34;2.55;;;1.20;;
45970;SDS011;31681;48.982;8.394;2022-12-29T17:21:00;2.38;;;0.90;;
45970;SDS011;31681;48.982;8.394;2022-12-29T17:23:25;1.85;;;0.88;;